Time;durP1;ratioP1;P1;durP2;ratioP2;P2;SDS_P1;SDS_P2;PMS_P1;PMS_P2;Temp;Humidity;BMP_temperature;BMP_pressure;BME280_temperature;BME280_humidity;BME280_pressure;Samples;Min_cycle;Max_cycle;Signal;HPM_P1;HPM_P2
2023/08/21 00:01:46;;;;;;;5.10;4.60;;;22.90;99.90;;;;;;5029865;28;20456;-67
2023/08/21 00:04:12;;;;;;;4.93;4.47;;;22.90;99.90;;;;;;5030393;28;20831;-67
2023/08/21 00:06:39;;;;;;;4.80;4.30;;;22.90;99.90;;;;;;5030031;28;20994;-66
2023/08/21 00:09:06;;;;;;;4.50;4.10;;;22.90;99.90;;;;;;5029905;28;20477;-67
2023/08/21 00:11:33;;;;;;;4.87;4.37;;;22.90;99.90;;;;;;5030028;28;20468;-67
2023/08/21 00:13:59;;;;;;;5.13;4.63;;;22.90;99.90;;;;;;5029824;28;20519;-67
2023/08/21 00:16:28;;;;;;;4.47;4.07;;;22.90;99.90;;;;;;5029981;28;20460;-67
2023/08/21 00:18:55;;;;;;;5.93;4.97;;;22.90;99.90;;;;;;5029773;28;20476;-67
2023/08/21 00:21:21;;;;;;;4.27;3.90;;;22.90;99.90;;;;;;5029783;28;20460;-66
2023/08/21 00:23:48;;;;;;;5.40;4.20;;;22.90;99.90;;;;;;5029860;28;20460;-66
2023/08/21 00:26:15;;;;;;;4.30;3.90;;;22.90;99.90;;;;;;5030063;28;20460;-66
2023/08/21 00:28:41;;;;;;;4.60;4.20;;;22.90;99.90;;;;;;5029464;28;20975;-66
2023/08/21 00:31:08;;;;;;;4.57;4.17;;;22.90;99.90;;;;;;5029693;28;20456;-66
2023/08/21 00:33:37;;;;;;;3.70;3.40;;;22.90;99.90;;;;;;5029955;28;20485;-66
2023/08/21 00:36:04;;;;;;;4.90;4.40;;;22.90;99.90;;;;;;5029932;28;20461;-66
2023/08/21 00:38:31;;;;;;;6.77;3.90;;;22.90;99.90;;;;;;5029577;28;20472;-66
2023/08/21 00:40:58;;;;;;;4.57;4.17;;;22.80;99.90;;;;;;5029547;28;20464;-66
2023/08/21 00:43:24;;;;;;;4.93;4.27;;;22.80;99.90;;;;;;5032557;28;20573;-67
2023/08/21 00:45:51;;;;;;;5.53;5.03;;;22.80;99.90;;;;;;5033363;28;20456;-66
2023/08/21 00:48:19;;;;;;;5.20;4.70;;;22.80;99.90;;;;;;5033418;28;20459;-67
2023/08/21 00:50:47;;;;;;;5.10;4.60;;;22.80;99.90;;;;;;5033052;28;20479;-66
2023/08/21 00:53:14;;;;;;;5.40;4.03;;;22.80;99.90;;;;;;5033365;28;20836;-67
2023/08/21 00:55:42;;;;;;;5.80;4.67;;;22.70;99.90;;;;;;5033491;28;20484;-67
2023/08/21 00:58:10;;;;;;;5.13;4.63;;;22.70;99.90;;;;;;5032964;28;20539;-67
2023/08/21 01:00:37;;;;;;;4.23;3.83;;;22.60;99.90;;;;;;5032923;28;21110;-66
2023/08/21 01:03:04;;;;;;;4.77;4.30;;;22.70;99.90;;;;;;5033129;28;21008;-67
2023/08/21 01:05:31;;;;;;;4.93;4.33;;;22.60;99.90;;;;;;5032716;28;20459;-67
2023/08/21 01:08:03;;;;;;;4.83;4.10;;;22.60;99.90;;;;;;5032996;28;20470;-67
2023/08/21 01:10:50;;;;;;;5.00;4.50;;;22.60;99.90;;;;;;5032912;28;20891;-67
2023/08/21 01:13:30;;;;;;;4.27;3.87;;;22.50;99.90;;;;;;5033197;28;20477;-66
2023/08/21 01:15:57;;;;;;;5.57;3.97;;;22.50;99.90;;;;;;5032767;28;20483;-67
2023/08/21 01:18:27;;;;;;;4.80;4.40;;;22.50;99.90;;;;;;5032934;28;20464;-66
2023/08/21 01:20:54;;;;;;;4.57;4.17;;;22.50;99.90;;;;;;5032693;28;20464;-68
2023/08/21 01:23:32;;;;;;;5.03;4.20;;;22.40;99.90;;;;;;5032992;28;20466;-68
2023/08/21 01:25:58;;;;;;;4.60;4.20;;;22.40;99.90;;;;;;5032841;28;20455;-68
2023/08/21 01:28:25;;;;;;;8.70;3.97;;;22.40;99.90;;;;;;5032550;28;20515;-67
2023/08/21 01:30:59;;;;;;;5.80;4.70;;;22.40;99.90;;;;;;5032400;28;20457;-67
2023/08/21 01:33:28;;;;;;;6.23;4.53;;;22.30;99.90;;;;;;5032859;28;20456;-67
2023/08/21 01:35:57;;;;;;;5.40;4.40;;;22.30;99.90;;;;;;5035753;28;20496;-67
2023/08/21 01:38:25;;;;;;;5.83;4.97;;;22.20;99.90;;;;;;5032418;28;21009;-66
2023/08/21 01:40:54;;;;;;;4.70;4.20;;;22.20;99.90;;;;;;5032149;28;20456;-67
2023/08/21 01:43:20;;;;;;;4.57;4.17;;;22.20;99.90;;;;;;5032799;28;20459;-68
2023/08/21 01:45:47;;;;;;;5.27;4.77;;;22.10;99.90;;;;;;5032447;28;20469;-68
2023/08/21 01:48:14;;;;;;;4.67;4.23;;;22.10;99.90;;;;;;5024477;28;20460;-68
2023/08/21 01:50:41;;;;;;;5.03;4.60;;;22.10;99.90;;;;;;5032023;28;20475;-67
2023/08/21 01:53:07;;;;;;;4.43;4.03;;;22.10;99.90;;;;;;5031673;28;20454;-67
2023/08/21 01:55:34;;;;;;;4.47;4.07;;;22.00;99.90;;;;;;5032174;28;20482;-67
2023/08/21 01:58:02;;;;;;;5.20;4.27;;;22.00;99.90;;;;;;5031883;28;20988;-67
2023/08/21 02:00:29;;;;;;;4.70;3.97;;;22.00;99.90;;;;;;5031886;28;20486;-67
2023/08/21 02:02:55;;;;;;;5.33;4.90;;;22.00;99.90;;;;;;5032153;28;20461;-66
2023/08/21 02:05:22;;;;;;;6.07;4.53;;;22.00;99.90;;;;;;5032298;28;20967;-67
2023/08/21 02:07:49;;;;;;;4.67;4.27;;;21.90;99.90;;;;;;5032191;28;20465;-67
2023/08/21 02:10:16;;;;;;;5.50;4.10;;;21.90;99.90;;;;;;5032326;28;20487;-67
2023/08/21 02:12:42;;;;;;;4.90;4.30;;;21.90;99.90;;;;;;5032319;28;20464;-68
2023/08/21 02:15:11;;;;;;;5.53;5.03;;;21.80;99.90;;;;;;5031801;28;20483;-67
2023/08/21 02:17:38;;;;;;;5.10;4.63;;;21.80;99.90;;;;;;5031680;28;20519;-68
2023/08/21 02:20:05;;;;;;;4.70;4.30;;;21.80;99.90;;;;;;5031423;28;20488;-68
2023/08/21 02:22:32;;;;;;;7.73;4.93;;;21.80;99.90;;;;;;5031965;28;20467;-68
2023/08/21 02:24:59;;;;;;;6.07;4.67;;;21.70;99.90;;;;;;5031507;28;20960;-67
2023/08/21 02:27:25;;;;;;;4.27;3.97;;;21.70;99.90;;;;;;5031634;28;20464;-67
2023/08/21 02:29:52;;;;;;;4.80;4.40;;;21.60;99.90;;;;;;5031217;28;20474;-68
2023/08/21 02:32:20;;;;;;;5.27;4.50;;;21.60;99.90;;;;;;5031706;28;20961;-68
2023/08/21 02:34:47;;;;;;;4.80;4.20;;;21.60;99.90;;;;;;5031452;28;20495;-68
2023/08/21 02:37:13;;;;;;;4.87;4.33;;;21.60;99.90;;;;;;5031337;28;20809;-67
2023/08/21 02:39:40;;;;;;;5.60;4.60;;;21.50;99.90;;;;;;5031349;28;20480;-68
2023/08/21 02:42:07;;;;;;;4.73;4.27;;;21.50;99.90;;;;;;5031423;28;20453;-68
2023/08/21 02:44:34;;;;;;;4.93;4.43;;;21.50;99.90;;;;;;5031508;28;20474;-68
2023/08/21 02:47:00;;;;;;;4.73;4.33;;;21.50;99.90;;;;;;5031161;28;20468;-67
2023/08/21 02:49:28;;;;;;;4.77;4.40;;;21.50;99.90;;;;;;5031362;28;20481;-68
2023/08/21 02:51:55;;;;;;;5.67;5.00;;;21.40;99.90;;;;;;5030832;28;20460;-67
2023/08/21 02:54:22;;;;;;;5.53;4.57;;;21.40;99.90;;;;;;5031217;28;20837;-67
2023/08/21 02:56:49;;;;;;;4.63;4.20;;;21.40;99.90;;;;;;5030921;28;20462;-68
2023/08/21 02:59:15;;;;;;;5.40;4.33;;;21.30;99.90;;;;;;5031065;28;20828;-68
2023/08/21 03:01:42;;;;;;;4.80;4.40;;;21.30;99.90;;;;;;5030752;28;20455;-68
2023/08/21 03:04:09;;;;;;;5.40;4.50;;;21.30;99.90;;;;;;5030597;28;20464;-67
2023/08/21 03:06:37;;;;;;;4.90;4.50;;;21.30;99.90;;;;;;5030515;28;20481;-68
2023/08/21 03:09:03;;;;;;;5.63;5.10;;;21.30;99.90;;;;;;5030551;28;20481;-67
2023/08/21 03:11:30;;;;;;;4.80;4.40;;;21.20;99.90;;;;;;5033487;28;20946;-68
2023/08/21 03:13:57;;;;;;;6.53;5.60;;;21.20;99.90;;;;;;5030908;28;21077;-66
2023/08/21 03:16:23;;;;;;;5.47;4.67;;;21.20;99.90;;;;;;5030860;28;20488;-68
2023/08/21 03:18:57;;;;;;;4.60;4.20;;;21.20;99.90;;;;;;5030485;28;20478;-68
2023/08/21 03:21:24;;;;;;;4.73;4.30;;;21.10;99.90;;;;;;5030627;28;20557;-67
2023/08/21 03:23:56;;;;;;;4.93;4.37;;;21.10;99.90;;;;;;5030691;28;20956;-67
2023/08/21 03:26:22;;;;;;;4.70;4.30;;;21.10;99.90;;;;;;5022623;28;20477;-68
2023/08/21 03:28:49;;;;;;;5.07;4.67;;;21.10;99.90;;;;;;5030510;28;20578;-67
2023/08/21 03:31:16;;;;;;;5.60;5.00;;;21.10;99.90;;;;;;5030211;28;20462;-67
2023/08/21 03:33:43;;;;;;;5.30;4.80;;;21.10;99.90;;;;;;5030721;28;20462;-66
2023/08/21 03:36:10;;;;;;;4.67;4.27;;;21.00;99.90;;;;;;5030394;28;20487;-67
2023/08/21 03:38:36;;;;;;;6.33;5.83;;;21.00;99.90;;;;;;5030093;28;20456;-67
2023/08/21 03:41:05;;;;;;;5.50;5.00;;;21.00;99.90;;;;;;5030097;28;20464;-67
2023/08/21 03:43:32;;;;;;;4.37;3.97;;;21.00;99.90;;;;;;5030420;28;20839;-68
2023/08/21 03:45:59;;;;;;;4.67;4.27;;;21.00;99.90;;;;;;5030527;28;20460;-67
2023/08/21 03:48:25;;;;;;;5.67;4.60;;;21.00;99.90;;;;;;5030300;28;20465;-67
2023/08/21 03:50:52;;;;;;;8.80;4.90;;;20.90;99.90;;;;;;5030053;28;20467;-67
2023/08/21 03:53:19;;;;;;;4.70;4.30;;;21.00;99.90;;;;;;5030327;28;20456;-67
2023/08/21 03:55:46;;;;;;;5.27;4.77;;;20.90;99.90;;;;;;5110658;22;20441;-66
2023/08/21 03:58:15;;;;;;;5.90;5.40;;;20.90;99.90;;;;;;5048771;28;20950;-66
2023/08/21 04:00:41;;;;;;;5.77;4.83;;;20.90;99.90;;;;;;5049600;28;20475;-66
2023/08/21 04:03:08;;;;;;;5.07;4.67;;;20.90;99.90;;;;;;5049621;28;20482;-66
2023/08/21 04:05:35;;;;;;;4.70;4.30;;;20.90;99.90;;;;;;5050187;28;20451;-66
2023/08/21 04:08:01;;;;;;;5.17;4.77;;;20.80;99.90;;;;;;5049451;28;20468;-66
2023/08/21 04:10:28;;;;;;;5.17;4.63;;;20.80;99.90;;;;;;5049717;28;20477;-66
2023/08/21 04:12:55;;;;;;;5.20;4.70;;;20.80;99.90;;;;;;5049915;28;20467;-67
2023/08/21 04:15:23;;;;;;;5.53;5.03;;;20.80;99.90;;;;;;5049941;28;20940;-67
2023/08/21 04:17:50;;;;;;;7.17;6.50;;;20.80;99.90;;;;;;5053537;28;20461;-67
2023/08/21 04:20:16;;;;;;;5.40;4.90;;;20.80;99.90;;;;;;5053313;28;20840;-66
2023/08/21 04:22:43;;;;;;;7.07;4.90;;;20.80;99.90;;;;;;5053966;28;20832;-66
2023/08/21 04:25:11;;;;;;;5.43;4.53;;;20.80;99.90;;;;;;5053586;28;20452;-66
2023/08/21 04:27:37;;;;;;;5.40;4.90;;;20.70;99.90;;;;;;5053730;28;20516;-66
2023/08/21 04:30:05;;;;;;;4.97;4.20;;;20.70;99.90;;;;;;5053253;28;20472;-66
2023/08/21 04:32:33;;;;;;;5.63;5.13;;;20.70;99.90;;;;;;5054976;28;20470;-66
2023/08/21 04:35:00;;;;;;;4.73;4.30;;;20.70;99.90;;;;;;5054488;28;20484;-66
2023/08/21 04:37:27;;;;;;;5.43;4.93;;;20.70;99.90;;;;;;5054876;28;20452;-66
2023/08/21 04:39:54;;;;;;;6.90;4.60;;;20.70;99.90;;;;;;5054531;28;20504;-66
2023/08/21 04:42:21;;;;;;;5.87;5.23;;;20.60;99.90;;;;;;5052080;28;20951;-66
2023/08/21 04:44:48;;;;;;;4.67;4.07;;;20.60;99.90;;;;;;5034633;28;20470;-66
2023/08/21 04:47:22;;;;;;;6.47;4.50;;;20.60;99.90;;;;;;5034028;28;20458;-66
2023/08/21 04:49:50;;;;;;;5.00;4.50;;;20.60;99.90;;;;;;5034095;28;20476;-66
2023/08/21 04:52:17;;;;;;;4.70;4.20;;;20.60;99.90;;;;;;5034223;28;20462;-66
2023/08/21 04:54:44;;;;;;;6.07;5.27;;;20.60;99.90;;;;;;5034257;28;20815;-66
2023/08/21 04:57:11;;;;;;;5.47;4.97;;;20.60;99.90;;;;;;5033501;28;20453;-67
2023/08/21 04:59:37;;;;;;;5.37;4.97;;;20.70;99.90;;;;;;5034177;28;20472;-66
2023/08/21 05:02:04;;;;;;;5.20;4.70;;;20.70;99.90;;;;;;5033960;28;20456;-66
2023/08/21 05:04:31;;;;;;;5.77;4.93;;;20.70;99.90;;;;;;5033878;28;20497;-65
2023/08/21 05:06:59;;;;;;;5.07;4.57;;;20.70;99.90;;;;;;5033134;28;20452;-66
2023/08/21 05:09:26;;;;;;;5.30;4.80;;;20.80;99.90;;;;;;5035964;28;20483;-66
2023/08/21 05:11:53;;;;;;;4.73;4.23;;;20.70;99.90;;;;;;5053098;28;20813;-66
2023/08/21 05:14:20;;;;;;;5.20;4.03;;;20.80;99.90;;;;;;5045303;28;20462;-66
2023/08/21 05:16:47;;;;;;;6.40;4.70;;;20.80;99.90;;;;;;5039572;28;20476;-66
2023/08/21 05:19:13;;;;;;;5.70;4.60;;;20.80;99.90;;;;;;5050392;28;20911;-66
2023/08/21 05:21:40;;;;;;;5.60;5.10;;;20.90;99.90;;;;;;5048893;28;20468;-66
2023/08/21 05:24:08;;;;;;;5.63;4.80;;;20.90;99.90;;;;;;5049347;28;20456;-66
2023/08/21 05:26:37;;;;;;;6.30;5.10;;;21.00;99.90;;;;;;5037238;28;20824;-66
2023/08/21 05:29:03;;;;;;;5.10;4.60;;;21.00;99.90;;;;;;5051904;28;20479;-66
2023/08/21 05:31:30;;;;;;;5.83;5.03;;;21.00;99.90;;;;;;5041935;28;20466;-66
2023/08/21 05:33:57;;;;;;;5.73;5.07;;;21.10;99.90;;;;;;5041653;28;20470;-66
2023/08/21 05:36:24;;;;;;;4.93;4.50;;;21.10;99.90;;;;;;5043391;28;20490;-66
2023/08/21 05:38:51;;;;;;;6.20;4.90;;;21.20;99.90;;;;;;5039290;28;20477;-66
2023/08/21 05:41:19;;;;;;;5.00;4.50;;;21.20;99.90;;;;;;5042620;28;20488;-66
2023/08/21 05:43:47;;;;;;;5.43;4.90;;;21.30;99.90;;;;;;5048486;28;20465;-66
2023/08/21 05:46:14;;;;;;;5.00;4.60;;;21.30;99.90;;;;;;5041208;28;20464;-66
2023/08/21 05:48:40;;;;;;;5.73;5.23;;;21.40;99.90;;;;;;5045115;28;20468;-66
2023/08/21 05:51:07;;;;;;;6.13;5.57;;;21.40;99.90;;;;;;5052272;28;20470;-66
2023/08/21 05:53:34;;;;;;;5.13;4.63;;;21.50;99.90;;;;;;5032914;28;20831;-66
2023/08/21 05:56:00;;;;;;;6.07;5.13;;;21.60;99.90;;;;;;5032666;28;20481;-66
2023/08/21 05:58:31;;;;;;;5.10;4.60;;;21.70;99.90;;;;;;5043146;28;20459;-66
2023/08/21 06:00:58;;;;;;;4.27;3.87;;;21.80;99.90;;;;;;5052342;28;20460;-66
2023/08/21 06:03:25;;;;;;;4.83;4.40;;;21.80;99.90;;;;;;5052598;28;20462;-66
2023/08/21 06:05:51;;;;;;;5.10;4.60;;;21.90;99.90;;;;;;5052440;28;20524;-66
2023/08/21 06:08:19;;;;;;;5.03;4.53;;;22.00;99.90;;;;;;5052195;28;20457;-66
2023/08/21 06:10:45;;;;;;;5.03;4.43;;;22.10;99.90;;;;;;5052257;28;20744;-66
2023/08/21 06:13:12;;;;;;;7.30;4.77;;;22.20;99.90;;;;;;5052449;28;20473;-66
2023/08/21 06:15:40;;;;;;;5.43;4.83;;;22.30;99.90;;;;;;5052518;28;20847;-66
2023/08/21 06:18:07;;;;;;;7.10;5.53;;;22.40;99.90;;;;;;5052082;28;20460;-66
2023/08/21 06:20:33;;;;;;;6.10;5.38;;;22.40;99.90;;;;;;5048023;28;20455;-65
2023/08/21 06:23:00;;;;;;;5.93;5.10;;;22.50;99.90;;;;;;5032124;28;20201;-66
2023/08/21 06:25:27;;;;;;;5.27;4.77;;;22.60;99.90;;;;;;5032399;28;20907;-66
2023/08/21 06:27:53;;;;;;;4.90;4.37;;;22.80;99.90;;;;;;5031554;28;20467;-66
2023/08/21 06:30:20;;;;;;;4.90;4.37;;;22.90;99.90;;;;;;5031385;28;20487;-66
2023/08/21 06:32:48;;;;;;;5.63;5.07;;;23.00;99.90;;;;;;5032018;28;20465;-66
2023/08/21 06:35:16;;;;;;;4.73;4.33;;;23.10;99.90;;;;;;5031748;28;20470;-66
2023/08/21 06:37:43;;;;;;;4.63;4.23;;;23.20;99.90;;;;;;5031686;28;20459;-66
2023/08/21 06:40:11;;;;;;;6.50;5.70;;;23.30;99.90;;;;;;5046745;28;20477;-67
2023/08/21 06:42:38;;;;;;;5.00;4.60;;;23.40;99.90;;;;;;5036960;28;20967;-66
2023/08/21 06:45:06;;;;;;;5.63;4.90;;;23.50;99.90;;;;;;5031090;28;21118;-66
2023/08/21 06:47:33;;;;;;;5.20;4.50;;;23.70;99.90;;;;;;5030829;28;21038;-66
2023/08/21 06:50:01;;;;;;;5.13;4.63;;;23.80;99.90;;;;;;5030393;28;20472;-67
2023/08/21 06:52:28;;;;;;;6.00;4.57;;;23.90;99.90;;;;;;5031147;28;20459;-67
2023/08/21 06:54:54;;;;;;;5.23;4.73;;;23.90;99.90;;;;;;5030952;28;20460;-67
2023/08/21 06:57:22;;;;;;;6.40;4.63;;;24.00;99.90;;;;;;5028754;28;20484;-67
2023/08/21 06:59:48;;;;;;;4.93;4.43;;;24.10;99.90;;;;;;5030110;28;20835;-67
2023/08/21 07:02:15;;;;;;;5.60;4.63;;;24.20;99.90;;;;;;5031310;28;20464;-67
2023/08/21 07:04:42;;;;;;;5.90;4.90;;;24.30;99.90;;;;;;5030675;28;20839;-67
2023/08/21 07:07:10;;;;;;;5.30;4.80;;;24.40;99.90;;;;;;5030584;28;20460;-67
2023/08/21 07:09:36;;;;;;;4.57;4.20;;;24.50;99.90;;;;;;5030849;28;20487;-66
2023/08/21 07:12:04;;;;;;;5.53;5.03;;;24.60;99.90;;;;;;5030711;28;20456;-67
2023/08/21 07:14:30;;;;;;;6.20;4.60;;;24.70;99.90;;;;;;5030693;28;20453;-67
2023/08/21 07:16:57;;;;;;;5.13;4.53;;;24.80;99.90;;;;;;5029306;28;20492;-67
2023/08/21 07:19:24;;;;;;;4.90;4.40;;;24.90;99.90;;;;;;5029373;28;21364;-67
2023/08/21 07:21:50;;;;;;;4.33;4.00;;;25.00;99.90;;;;;;5030643;28;20465;-67
2023/08/21 07:24:18;;;;;;;4.80;4.33;;;25.10;99.90;;;;;;5030355;28;20464;-67
2023/08/21 07:26:45;;;;;;;4.53;4.13;;;25.10;99.90;;;;;;5015447;28;20968;-67
2023/08/21 07:29:12;;;;;;;5.40;4.90;;;25.20;99.90;;;;;;5025975;28;20853;-67
2023/08/21 07:31:39;;;;;;;5.10;4.60;;;25.40;99.90;;;;;;5027910;28;20859;-67
2023/08/21 07:34:06;;;;;;;5.10;4.67;;;25.40;99.90;;;;;;5030252;28;20530;-67
2023/08/21 07:36:33;;;;;;;5.10;4.33;;;25.50;99.90;;;;;;5029709;28;20999;-67
2023/08/21 07:38:59;;;;;;;4.97;4.47;;;25.60;99.90;;;;;;5029797;28;20481;-67
2023/08/21 07:41:28;;;;;;;5.53;4.10;;;25.70;99.90;;;;;;5002426;28;20481;-67
2023/08/21 07:43:55;;;;;;;5.70;5.10;;;25.80;99.90;;;;;;5016716;28;20465;-67
2023/08/21 07:46:23;;;;;;;5.00;4.50;;;25.80;99.90;;;;;;5029761;28;20491;-67
2023/08/21 07:48:50;;;;;;;6.57;4.80;;;26.00;99.90;;;;;;5021864;28;20508;-67
2023/08/21 07:51:17;;;;;;;4.97;4.47;;;26.10;99.90;;;;;;5045103;28;20447;-67
2023/08/21 07:53:44;;;;;;;4.40;4.00;;;26.20;99.90;;;;;;5049264;28;20468;-67
2023/08/21 07:56:11;;;;;;;8.77;4.63;;;26.30;99.90;;;;;;5049585;28;20484;-67
2023/08/21 07:58:39;;;;;;;5.17;4.67;;;26.40;99.90;;;;;;5049245;28;20501;-67
2023/08/21 08:01:06;;;;;;;4.57;4.17;;;26.50;99.90;;;;;;5049524;28;20459;-67
2023/08/21 08:03:32;;;;;;;7.33;4.83;;;26.50;99.90;;;;;;5049222;28;20497;-67
2023/08/21 08:05:59;;;;;;;4.80;4.40;;;26.70;99.90;;;;;;5045364;28;20468;-68
2023/08/21 08:08:26;;;;;;;4.93;4.53;;;26.80;99.90;;;;;;5029717;28;20457;-67
2023/08/21 08:10:53;;;;;;;6.03;4.03;;;26.90;99.90;;;;;;5029846;28;20518;-67
2023/08/21 08:13:19;;;;;;;5.47;4.97;;;27.00;99.90;;;;;;5029812;28;20948;-67
2023/08/21 08:15:47;;;;;;;6.23;5.40;;;27.10;99.90;;;;;;5029769;28;20464;-67
2023/08/21 08:18:14;;;;;;;5.13;4.73;;;27.20;99.90;;;;;;5029098;28;20456;-67
2023/08/21 08:20:41;;;;;;;6.10;4.93;;;27.30;99.90;;;;;;5029409;28;20476;-67
2023/08/21 08:23:08;;;;;;;5.50;4.97;;;27.40;99.90;;;;;;5033328;28;20889;-67
2023/08/21 08:25:35;;;;;;;6.20;5.60;;;27.40;99.90;;;;;;5049722;28;20456;-67
2023/08/21 08:28:01;;;;;;;5.10;4.60;;;27.40;99.90;;;;;;5049803;28;20447;-67
2023/08/21 08:30:28;;;;;;;5.27;4.87;;;27.50;99.90;;;;;;5032634;28;20483;-67
2023/08/21 08:32:56;;;;;;;5.03;4.53;;;27.60;99.90;;;;;;5029929;28;20945;-67
2023/08/21 08:35:23;;;;;;;5.53;5.03;;;27.80;99.90;;;;;;5029921;28;20475;-67
2023/08/21 08:37:50;;;;;;;4.93;4.53;;;28.00;99.90;;;;;;5029519;28;20972;-67
2023/08/21 08:40:17;;;;;;;5.53;5.03;;;28.10;99.90;;;;;;5044560;28;20479;-67
2023/08/21 08:42:43;;;;;;;5.43;4.93;;;28.30;99.90;;;;;;5039421;28;20461;-67
2023/08/21 08:45:14;;;;;;;5.60;5.13;;;28.40;99.90;;;;;;5029872;28;20456;-67
2023/08/21 08:47:41;;;;;;;5.40;4.90;;;28.40;99.90;;;;;;5047866;28;20451;-67
2023/08/21 08:50:10;;;;;;;4.97;4.50;;;28.40;99.90;;;;;;5049232;28;20883;-67
2023/08/21 08:52:39;;;;;;;5.07;4.67;;;28.30;99.90;;;;;;5049688;28;20459;-67
2023/08/21 08:55:07;;;;;;;5.73;5.23;;;28.40;99.90;;;;;;5044963;28;20843;-67
2023/08/21 08:57:34;;;;;;;5.03;4.63;;;28.50;99.90;;;;;;5029034;28;20582;-67
2023/08/21 09:00:04;;;;;;;6.60;4.53;;;28.70;99.90;;;;;;5029491;28;20531;-67
2023/08/21 09:02:30;;;;;;;5.07;4.47;;;28.80;99.90;;;;;;5029421;28;20464;-67
2023/08/21 09:04:58;;;;;;;5.10;4.60;;;28.90;99.90;;;;;;5033266;28;20460;-67
2023/08/21 09:07:28;;;;;;;4.77;4.37;;;29.00;99.90;;;;;;5029071;28;20474;-67
2023/08/21 09:10:03;;;;;;;4.27;3.90;;;29.00;99.90;;;;;;5031202;28;20485;-66
2023/08/21 09:12:33;;;;;;;7.97;5.00;;;29.10;99.90;;;;;;5032086;28;20466;-66
2023/08/21 09:15:01;;;;;;;4.60;4.20;;;29.20;99.90;;;;;;5031824;28;20614;-66
2023/08/21 09:17:46;;;;;;;4.47;4.07;;;29.20;99.90;;;;;;5031457;28;20630;-67
2023/08/21 09:20:25;;;;;;;5.07;4.57;;;29.30;99.90;;;;;;5031618;28;20476;-67
2023/08/21 09:23:00;;;;;;;6.20;4.87;;;29.40;99.90;;;;;;5031085;28;20461;-66
2023/08/21 09:25:28;;;;;;;5.77;4.73;;;29.50;99.90;;;;;;5031974;28;20460;-64
2023/08/21 09:27:56;;;;;;;4.87;4.40;;;29.50;99.90;;;;;;5031467;28;20539;-64
2023/08/21 09:30:25;;;;;;;4.80;4.40;;;29.60;99.90;;;;;;5027463;28;20484;-64
2023/08/21 09:32:57;;;;;;;5.57;5.07;;;29.70;99.90;;;;;;5050596;28;20501;-64
2023/08/21 09:35:26;;;;;;;5.43;4.83;;;29.80;99.90;;;;;;5051173;28;20490;-64
2023/08/21 09:37:58;;;;;;;5.13;4.63;;;29.90;99.90;;;;;;5031610;28;20575;-66
2023/08/21 09:40:26;;;;;;;5.30;4.60;;;30.00;99.90;;;;;;5030971;28;20578;-64
2023/08/21 09:42:55;;;;;;;6.07;5.07;;;30.10;99.90;;;;;;5042277;28;20521;-66
2023/08/21 09:45:26;;;;;;;5.77;5.17;;;30.20;99.90;;;;;;5035920;28;21040;-66
2023/08/21 09:47:54;;;;;;;5.60;5.20;;;30.20;99.90;;;;;;5031180;28;20449;-67
2023/08/21 09:50:23;;;;;;;5.10;4.70;;;30.10;99.90;;;;;;5030626;28;20520;-65
2023/08/21 09:52:57;;;;;;;5.50;4.50;;;30.10;99.90;;;;;;5030444;28;20999;-66
2023/08/21 09:55:31;;;;;;;5.60;4.07;;;30.10;99.90;;;;;;5030833;28;20468;-66
2023/08/21 09:58:01;;;;;;;5.03;4.57;;;30.20;99.90;;;;;;5030553;28;20534;-66
2023/08/21 10:00:34;;;;;;;4.67;4.27;;;30.30;99.90;;;;;;5030107;28;21003;-63
2023/08/21 10:03:03;;;;;;;3.90;3.60;;;30.40;99.90;;;;;;5022871;28;20467;-64
2023/08/21 10:05:33;;;;;;;3.90;3.50;;;30.50;99.90;;;;;;5038290;28;20459;-64
2023/08/21 10:08:03;;;;;;;4.13;3.80;;;30.60;99.90;;;;;;5050061;28;20488;-66
2023/08/21 10:10:36;;;;;;;4.20;3.80;;;30.60;99.90;;;;;;5041001;28;20484;-66
2023/08/21 10:13:12;;;;;;;4.80;4.03;;;30.80;99.90;;;;;;5031075;28;20461;-67
2023/08/21 10:15:40;;;;;;;3.93;3.63;;;30.90;99.90;;;;;;5103325;22;20487;-64
2023/08/21 10:18:23;;;;;;;5.47;4.90;;;30.90;99.90;;;;;;5023731;28;20487;-64
2023/08/21 10:20:50;;;;;;;4.70;4.30;;;31.00;99.90;;;;;;5030268;28;21217;-65
2023/08/21 10:23:30;;;;;;;5.43;5.00;;;31.10;99.90;;;;;;5031688;28;20457;-64
2023/08/21 10:26:10;;;;;;;5.00;4.60;;;31.10;99.90;;;;;;5013883;28;20552;-65
2023/08/21 10:28:51;;;;;;;5.30;4.63;;;31.20;99.90;;;;;;5009615;28;20941;-64
2023/08/21 10:31:35;;;;;;;5.00;4.60;;;31.30;99.90;;;;;;5011130;28;20457;-65
2023/08/21 10:34:09;;;;;;;4.80;4.40;;;31.40;99.90;;;;;;5011549;28;20453;-65
2023/08/21 10:37:05;;;;;;;5.50;4.77;;;31.40;99.90;;;;;;5010913;28;20457;-65
2023/08/21 10:39:33;;;;;;;5.40;4.90;;;31.40;99.90;;;;;;4993946;28;20477;-64
2023/08/21 10:42:05;;;;;;;5.13;4.63;;;31.50;99.90;;;;;;5010905;28;20791;-65
2023/08/21 10:44:51;;;;;;;6.70;4.43;;;31.60;99.90;;;;;;5018503;28;20896;-64
2023/08/21 10:47:19;;;;;;;4.77;4.37;;;31.80;99.90;;;;;;5019198;28;20454;-65
2023/08/21 10:49:48;;;;;;;5.10;4.37;;;31.80;99.90;;;;;;5019339;28;20468;-64
2023/08/21 10:52:15;;;;;;;5.40;4.90;;;31.90;99.90;;;;;;5030413;28;20456;-64
2023/08/21 10:54:47;;;;;;;4.70;4.20;;;32.00;99.90;;;;;;5030380;28;20861;-65
2023/08/21 10:57:15;;;;;;;4.77;4.30;;;32.10;99.90;;;;;;5030613;28;20484;-64
2023/08/21 10:59:53;;;;;;;4.73;4.33;;;32.10;99.90;;;;;;5030172;28;20472;-65
2023/08/21 11:02:20;;;;;;;6.10;5.47;;;32.20;99.90;;;;;;5016556;28;20457;-64
2023/08/21 11:04:46;;;;;;;5.17;4.77;;;32.20;99.90;;;;;;5010534;28;20508;-64
2023/08/21 11:07:13;;;;;;;5.40;4.97;;;32.20;99.90;;;;;;5011059;28;20828;-64
2023/08/21 11:09:40;;;;;;;5.73;5.20;;;32.30;99.90;;;;;;5010533;28;20476;-64
2023/08/21 11:12:08;;;;;;;4.50;4.10;;;32.40;99.90;;;;;;5009968;28;20461;-64
2023/08/21 11:14:37;;;;;;;5.33;4.90;;;32.40;99.90;;;;;;5010250;28;20461;-65
2023/08/21 11:17:04;;;;;;;4.50;4.10;;;32.50;99.90;;;;;;5010324;28;20834;-64
2023/08/21 11:19:32;;;;;;;5.40;4.90;;;32.60;99.90;;;;;;5015460;28;20999;-65
2023/08/21 11:22:00;;;;;;;6.40;4.67;;;32.70;99.90;;;;;;5028806;28;20603;-64
2023/08/21 11:24:31;;;;;;;5.97;5.17;;;32.90;99.90;;;;;;5011626;28;20500;-64
2023/08/21 11:26:58;;;;;;;5.60;4.60;;;33.00;99.90;;;;;;5010665;28;20462;-64
2023/08/21 11:29:25;;;;;;;4.87;4.47;;;33.10;99.90;;;;;;5030200;28;20480;-64
2023/08/21 11:31:55;;;;;;;5.20;4.80;;;33.20;99.90;;;;;;5010699;28;20462;-64
2023/08/21 11:34:22;;;;;;;4.67;4.30;;;33.20;99.90;;;;;;5010359;28;20458;-65
2023/08/21 11:36:49;;;;;;;5.93;5.00;;;33.10;99.90;;;;;;5009866;28;20850;-64
2023/08/21 11:39:16;;;;;;;5.20;4.70;;;33.20;99.90;;;;;;5009511;28;20856;-64
2023/08/21 11:41:58;;;;;;;5.77;5.27;;;33.20;99.90;;;;;;5008907;28;20461;-65
2023/08/21 11:44:25;;;;;;;4.90;4.47;;;32.90;99.90;;;;;;5004311;28;20461;-65
2023/08/21 11:46:54;;;;;;;5.83;5.20;;;32.60;99.90;;;;;;5005701;28;20533;-64
2023/08/21 11:49:22;;;;;;;4.87;4.37;;;32.40;99.90;;;;;;5025057;28;21168;-64
2023/08/21 11:51:49;;;;;;;4.60;4.30;;;32.50;99.90;;;;;;5015667;28;20461;-64
2023/08/21 11:54:18;;;;;;;5.60;5.10;;;32.60;99.90;;;;;;5005481;28;21070;-65
2023/08/21 11:56:45;;;;;;;5.60;5.10;;;32.70;99.90;;;;;;5005689;28;21167;-64
2023/08/21 11:59:12;;;;;;;4.80;4.30;;;32.70;99.90;;;;;;5004220;28;20488;-64
2023/08/21 12:01:38;;;;;;;4.63;4.23;;;32.70;99.90;;;;;;5004789;28;20458;-65
2023/08/21 12:04:17;;;;;;;5.20;4.80;;;32.60;99.90;;;;;;5004610;28;20465;-64
2023/08/21 12:06:45;;;;;;;6.87;5.23;;;32.70;99.90;;;;;;5006038;28;20483;-64
2023/08/21 12:09:12;;;;;;;5.97;4.90;;;32.90;99.90;;;;;;5005577;28;21004;-65
2023/08/21 12:11:38;;;;;;;6.17;4.80;;;33.10;99.90;;;;;;5005766;28;20900;-64
2023/08/21 12:14:05;;;;;;;6.30;5.63;;;33.20;99.90;;;;;;5015978;28;20526;-65
2023/08/21 12:16:32;;;;;;;5.17;4.77;;;33.30;99.90;;;;;;5025418;28;21324;-65
2023/08/21 12:18:59;;;;;;;4.97;4.57;;;33.40;99.90;;;;;;5015479;28;20493;-64
2023/08/21 12:21:27;;;;;;;5.13;4.77;;;33.50;99.90;;;;;;5004908;28;20847;-65
2023/08/21 12:23:53;;;;;;;6.00;5.40;;;33.70;99.90;;;;;;5005701;28;20470;-65
2023/08/21 12:26:21;;;;;;;5.37;4.67;;;33.80;99.90;;;;;;5006199;28;21179;-65
2023/08/21 12:28:48;;;;;;;4.50;4.10;;;34.00;99.90;;;;;;5005564;28;20511;-64
2023/08/21 12:31:15;;;;;;;4.80;4.40;;;34.10;99.90;;;;;;5005393;28;20489;-64
2023/08/21 12:33:42;;;;;;;4.83;4.43;;;34.00;99.90;;;;;;5005709;28;20465;-64
2023/08/21 12:36:09;;;;;;;5.77;5.27;;;33.80;99.90;;;;;;5024211;28;20464;-64
2023/08/21 12:38:37;;;;;;;5.60;5.10;;;33.60;99.90;;;;;;5028509;28;20480;-64
2023/08/21 12:41:04;;;;;;;5.43;4.83;;;33.30;99.90;;;;;;5013413;28;20457;-65
2023/08/21 12:43:32;;;;;;;5.77;4.30;;;33.10;99.90;;;;;;5009949;28;20460;-64
2023/08/21 12:45:59;;;;;;;5.23;4.70;;;32.70;99.90;;;;;;5008970;28;20461;-64
2023/08/21 12:48:25;;;;;;;5.00;4.60;;;32.40;99.90;;;;;;5029057;28;20603;-64
2023/08/21 12:50:52;;;;;;;5.07;4.57;;;32.10;99.90;;;;;;5025049;28;20503;-64
2023/08/21 12:53:19;;;;;;;5.40;4.90;;;31.90;99.90;;;;;;5028833;28;20456;-64